createdAt,value
2023-11-24T00:01:31.522Z,15.73
2023-11-24T00:04:03.276Z,15.75
2023-11-24T00:06:34.970Z,15.77
2023-11-24T00:09:07.332Z,15.78
2023-11-24T00:11:39.173Z,15.79
2023-11-24T00:14:10.889Z,15.76
2023-11-24T00:16:42.518Z,15.73
2023-11-24T00:19:16.639Z,15.71
2023-11-24T00:21:49.033Z,15.68
2023-11-24T00:24:20.424Z,15.65
2023-11-24T00:26:53.955Z,15.62
2023-11-24T00:29:24.953Z,15.60
2023-11-24T00:31:56.098Z,15.57
2023-11-24T00:34:27.382Z,15.54
2023-11-24T00:36:59.706Z,15.48
2023-11-24T00:39:30.912Z,15.43
2023-11-24T00:42:02.263Z,15.41
2023-11-24T00:44:33.302Z,15.38
2023-11-24T00:47:06.499Z,15.37
2023-11-24T00:49:37.702Z,15.35
2023-11-24T00:52:09.632Z,15.35
2023-11-24T00:54:40.925Z,15.34
2023-11-24T00:57:12.177Z,15.35
2023-11-24T00:59:43.457Z,15.33
2023-11-24T01:02:14.584Z,15.31
2023-11-24T01:04:46.023Z,15.28
2023-11-24T01:07:17.421Z,15.25
2023-11-24T01:09:49.293Z,15.23
2023-11-24T01:12:20.513Z,15.20
2023-11-24T01:14:51.568Z,15.18
2023-11-24T01:17:23.032Z,15.16
2023-11-24T01:19:54.231Z,15.15
2023-11-24T01:22:26.067Z,15.14
2023-11-24T01:24:57.326Z,15.13
2023-11-24T01:27:31.366Z,15.10
2023-11-24T01:30:02.524Z,15.07
2023-11-24T01:32:34.077Z,15.04
2023-11-24T01:35:06.764Z,15.01
2023-11-24T01:37:37.661Z,15.00
2023-11-24T01:40:11.844Z,14.98
2023-11-24T01:42:43.620Z,14.97
2023-11-24T01:45:14.731Z,14.95
2023-11-24T01:47:48.255Z,14.93
2023-11-24T01:50:19.776Z,14.91
2023-11-24T01:52:51.430Z,14.91
2023-11-24T01:55:24.606Z,14.91
2023-11-24T01:57:57.748Z,14.92
2023-11-24T02:00:29.349Z,14.92
2023-11-24T02:03:01.839Z,14.90
2023-11-24T02:05:33.356Z,14.87
2023-11-24T02:08:05.251Z,14.85
2023-11-24T02:10:37.118Z,14.83
2023-11-24T02:13:09.481Z,14.81
2023-11-24T02:15:41.704Z,14.80
2023-11-24T02:18:13.696Z,14.77
2023-11-24T02:20:45.489Z,14.76
2023-11-24T02:23:17.573Z,14.76
2023-11-24T02:25:48.602Z,14.76
2023-11-24T02:28:19.560Z,14.74
2023-11-24T02:30:50.834Z,14.73
2023-11-24T02:33:24.107Z,14.71
2023-11-24T02:35:55.623Z,14.68
2023-11-24T02:38:26.597Z,14.65
2023-11-24T02:40:57.836Z,14.63
2023-11-24T02:43:29.754Z,14.61
2023-11-24T02:46:01.701Z,14.59
2023-11-24T02:48:33.356Z,14.58
2023-11-24T02:51:08.147Z,14.58
2023-11-24T02:53:40.969Z,14.59
2023-11-24T02:56:12.729Z,14.58
2023-11-24T02:58:44.227Z,14.57
2023-11-24T03:01:15.312Z,14.56
2023-11-24T03:03:46.913Z,14.54
2023-11-24T03:06:19.247Z,14.52
2023-11-24T03:08:50.190Z,14.50
2023-11-24T03:11:21.244Z,14.49
2023-11-24T03:13:52.194Z,14.47
2023-11-24T03:16:23.428Z,14.46
2023-11-24T03:18:55.662Z,14.45
2023-11-24T03:21:27.110Z,14.45
2023-11-24T03:23:58.328Z,14.44
2023-11-24T03:26:29.976Z,14.41
2023-11-24T03:29:01.442Z,14.37
2023-11-24T03:31:32.855Z,14.36
2023-11-24T03:34:05.113Z,14.35
2023-11-24T03:36:36.933Z,14.34
2023-11-24T03:39:08.685Z,14.34
2023-11-24T03:41:39.813Z,14.33
2023-11-24T03:44:11.150Z,14.34
2023-11-24T03:46:42.531Z,14.36
2023-11-24T03:49:13.739Z,14.37
2023-11-24T03:51:45.346Z,14.39
2023-11-24T03:54:17.194Z,14.39
2023-11-24T03:56:48.575Z,14.41
2023-11-24T03:59:19.687Z,14.43
2023-11-24T04:01:51.566Z,14.44
2023-11-24T04:04:23.168Z,14.46
2023-11-24T04:06:54.368Z,14.48
2023-11-24T04:09:26.440Z,14.50
2023-11-24T04:11:57.639Z,14.52
2023-11-24T04:14:28.985Z,14.53
2023-11-24T04:17:01.517Z,14.56
2023-11-24T04:19:32.792Z,14.58
2023-11-24T04:22:03.979Z,14.59
2023-11-24T04:24:35.052Z,14.59
2023-11-24T04:27:07.076Z,14.59
2023-11-24T04:29:38.721Z,14.59
2023-11-24T04:32:10.885Z,14.59
2023-11-24T04:34:42.444Z,14.60
2023-11-24T04:37:15.550Z,14.60
2023-11-24T04:39:47.893Z,14.60
2023-11-24T04:42:19.754Z,14.60
2023-11-24T04:44:53.175Z,14.60
2023-11-24T04:47:24.242Z,14.61
2023-11-24T04:49:55.566Z,14.62
2023-11-24T04:52:26.660Z,14.62
2023-11-24T04:54:58.061Z,14.62
2023-11-24T04:57:29.454Z,14.62
2023-11-24T05:00:00.780Z,14.61
2023-11-24T05:02:31.942Z,14.61
2023-11-24T05:05:03.533Z,14.60
2023-11-24T05:07:35.837Z,14.61
2023-11-24T05:10:10.865Z,14.62
2023-11-24T05:12:42.232Z,14.63
2023-11-24T05:15:14.497Z,14.65
2023-11-24T05:17:45.747Z,14.67
2023-11-24T05:20:19.374Z,14.68
2023-11-24T05:22:51.361Z,14.68
2023-11-24T05:25:22.344Z,14.68
2023-11-24T05:27:53.334Z,14.67
2023-11-24T05:30:24.992Z,14.67
2023-11-24T05:32:55.862Z,14.67
2023-11-24T05:35:27.114Z,14.68
2023-11-24T05:37:59.428Z,14.67
2023-11-24T05:40:30.713Z,14.68
2023-11-24T05:43:02.221Z,14.68
2023-11-24T05:45:35.887Z,14.69
2023-11-24T05:48:07.991Z,14.83
2023-11-24T05:50:40.072Z,15.14
2023-11-24T05:53:10.947Z,15.50
2023-11-24T05:55:42.259Z,15.98
2023-11-24T05:58:13.461Z,16.42
2023-11-24T06:00:45.527Z,16.77
2023-11-24T06:03:16.778Z,17.02
2023-11-24T06:05:48.065Z,17.14
2023-11-24T06:08:19.714Z,17.26
2023-11-24T06:10:51.587Z,17.35
2023-11-24T06:13:23.448Z,17.42
2023-11-24T06:15:56.072Z,17.52
2023-11-24T06:18:27.724Z,17.62
2023-11-24T06:20:59.117Z,17.72
2023-11-24T06:23:30.845Z,17.81
2023-11-24T06:26:01.718Z,17.91
2023-11-24T06:28:33.151Z,17.97
2023-11-24T06:31:04.672Z,17.93
2023-11-24T06:33:36.345Z,17.93
2023-11-24T06:36:08.602Z,17.97
2023-11-24T06:38:41.402Z,17.99
2023-11-24T06:41:13.424Z,17.98
2023-11-24T06:43:44.506Z,17.93
2023-11-24T06:46:15.576Z,17.93
2023-11-24T06:48:46.764Z,17.92
2023-11-24T06:51:19.232Z,17.93
2023-11-24T06:53:51.013Z,17.94
2023-11-24T06:56:22.664Z,17.97
2023-11-24T06:58:55.852Z,18.02
2023-11-24T07:01:34.188Z,18.02
2023-11-24T07:04:06.811Z,17.78
2023-11-24T07:06:37.958Z,17.46
2023-11-24T07:09:12.387Z,17.16
2023-11-24T07:11:44.799Z,16.89
2023-11-24T07:14:16.202Z,16.69
2023-11-24T07:16:47.909Z,16.52
2023-11-24T07:19:20.368Z,16.40
2023-11-24T07:21:51.477Z,16.29
2023-11-24T07:24:22.463Z,16.20
2023-11-24T07:26:55.136Z,16.13
2023-11-24T07:29:26.544Z,16.06
2023-11-24T07:31:57.645Z,16.02
2023-11-24T07:34:29.168Z,15.99
2023-11-24T07:37:02.182Z,15.97
2023-11-24T07:39:33.652Z,15.96
2023-11-24T07:42:05.727Z,15.98
2023-11-24T07:44:37.965Z,16.02
2023-11-24T07:47:10.035Z,16.07
2023-11-24T07:49:41.453Z,16.13
2023-11-24T07:52:13.216Z,16.20
2023-11-24T07:54:44.709Z,16.29
2023-11-24T07:57:15.832Z,16.40
2023-11-24T07:59:47.940Z,16.50
2023-11-24T08:02:19.137Z,16.62
2023-11-24T08:04:50.450Z,16.77
2023-11-24T08:07:22.959Z,16.92
2023-11-24T08:09:54.601Z,17.09
2023-11-24T08:12:25.898Z,17.27
2023-11-24T08:15:00.033Z,17.47
2023-11-24T08:17:31.468Z,17.71
2023-11-24T08:20:05.892Z,18.07
2023-11-24T08:22:37.248Z,18.95
2023-11-24T08:25:11.790Z,20.32
2023-11-24T08:27:45.839Z,21.89
2023-11-24T08:30:18.164Z,23.37
2023-11-24T08:32:50.536Z,24.63
2023-11-24T08:35:21.518Z,25.76
2023-11-24T08:37:52.955Z,26.49
2023-11-24T08:40:25.687Z,26.76
2023-11-24T08:42:59.164Z,26.86
2023-11-24T08:45:30.811Z,26.90
2023-11-24T08:48:01.910Z,26.82
2023-11-24T08:50:32.989Z,26.64
2023-11-24T08:53:06.828Z,26.47
2023-11-24T08:55:37.680Z,26.30
2023-11-24T08:58:08.642Z,26.10
2023-11-24T09:00:40.068Z,25.90
2023-11-24T09:03:11.824Z,25.74
2023-11-24T09:05:44.573Z,25.63
2023-11-24T09:08:18.403Z,25.54
2023-11-24T09:10:51.100Z,25.44
2023-11-24T09:13:23.336Z,25.35
2023-11-24T09:15:54.964Z,25.25
2023-11-24T09:18:26.917Z,25.15
2023-11-24T09:21:01.047Z,25.06
2023-11-24T09:23:32.713Z,25.00
2023-11-24T09:26:06.647Z,24.94
2023-11-24T09:28:38.836Z,24.87
2023-11-24T09:31:13.780Z,24.80
2023-11-24T09:33:45.118Z,24.74
2023-11-24T09:36:16.626Z,24.71
2023-11-24T09:38:49.499Z,24.66
2023-11-24T09:41:22.078Z,24.64
2023-11-24T09:43:53.839Z,24.63
2023-11-24T09:46:33.598Z,24.59
2023-11-24T09:49:12.281Z,24.57
2023-11-24T09:51:43.901Z,24.53
2023-11-24T09:54:19.190Z,24.49
2023-11-24T09:56:51.220Z,24.45
2023-11-24T09:59:23.650Z,24.39
2023-11-24T10:01:58.908Z,24.31
2023-11-24T10:04:30.288Z,24.21
2023-11-24T10:07:02.427Z,24.11
2023-11-24T10:09:36.575Z,24.07
2023-11-24T10:12:09.020Z,24.00
2023-11-24T10:14:44.937Z,23.94
2023-11-24T10:17:16.210Z,23.85
2023-11-24T10:19:47.181Z,23.80
2023-11-24T10:22:20.438Z,23.77
2023-11-24T10:24:51.565Z,23.74
2023-11-24T10:27:24.123Z,23.71
2023-11-24T10:29:55.309Z,23.66
2023-11-24T10:32:26.637Z,23.56
2023-11-24T10:34:59.149Z,23.39
2023-11-24T10:37:30.711Z,23.35
2023-11-24T10:40:03.723Z,23.32
2023-11-24T10:42:35.993Z,23.32
2023-11-24T10:45:11.159Z,23.30
2023-11-24T10:47:52.762Z,23.31
2023-11-24T10:50:29.294Z,23.32
2023-11-24T10:53:12.986Z,23.31
2023-11-24T10:55:45.541Z,23.27
2023-11-24T10:58:17.637Z,23.24
2023-11-24T11:00:49.612Z,23.22
2023-11-24T11:03:20.607Z,23.19
2023-11-24T11:06:05.315Z,23.14
2023-11-24T11:08:39.858Z,23.03
2023-11-24T11:11:28.780Z,22.95
2023-11-24T11:14:00.774Z,22.83
2023-11-24T11:16:32.635Z,22.72
2023-11-24T11:19:32.724Z,22.65
2023-11-24T11:22:08.398Z,22.60
2023-11-24T11:24:39.664Z,22.42
2023-11-24T11:27:27.987Z,22.21
2023-11-24T11:29:59.516Z,21.99
2023-11-24T11:32:34.070Z,21.75
2023-11-24T11:35:06.063Z,21.46
2023-11-24T11:37:37.328Z,21.26
2023-11-24T11:40:20.808Z,21.11
2023-11-24T11:43:00.317Z,20.95
2023-11-24T11:45:34.848Z,20.74
2023-11-24T11:48:10.430Z,20.68
2023-11-24T11:50:51.924Z,20.61
2023-11-24T11:53:26.721Z,20.42
2023-11-24T11:55:58.380Z,20.34
2023-11-24T11:58:30.560Z,20.32
2023-11-24T12:01:01.873Z,20.34
2023-11-24T12:03:33.505Z,20.35
2023-11-24T12:06:08.368Z,20.26
2023-11-24T12:08:40.293Z,20.29
2023-11-24T12:11:14.220Z,20.39
2023-11-24T12:13:45.550Z,20.50
2023-11-24T12:16:16.751Z,20.61
2023-11-24T12:18:54.212Z,20.72
2023-11-24T12:21:25.362Z,20.78
2023-11-24T12:24:08.323Z,20.71
2023-11-24T12:26:46.908Z,20.74
2023-11-24T12:29:18.240Z,20.78
2023-11-24T12:31:49.288Z,20.75
2023-11-24T12:34:21.969Z,20.66
2023-11-24T12:36:55.988Z,20.52
2023-11-24T12:39:31.924Z,20.28
2023-11-24T12:42:05.517Z,20.10
2023-11-24T12:44:37.994Z,20.03
2023-11-24T12:47:15.024Z,20.02
2023-11-24T12:50:02.093Z,20.03
2023-11-24T12:52:37.422Z,20.06
2023-11-24T12:55:11.847Z,20.02
2023-11-24T12:57:44.830Z,19.98
2023-11-24T13:00:18.434Z,20.02
2023-11-24T13:02:49.824Z,20.10
2023-11-24T13:05:21.407Z,20.09
2023-11-24T13:07:53.129Z,20.08
2023-11-24T13:10:24.187Z,20.04
2023-11-24T13:12:55.656Z,20.03
2023-11-24T13:15:26.853Z,19.99
2023-11-24T13:17:58.121Z,19.91
2023-11-24T13:20:33.800Z,19.79
2023-11-24T13:23:05.639Z,19.76
2023-11-24T13:25:38.040Z,19.71
2023-11-24T13:28:09.641Z,19.61
2023-11-24T13:30:41.098Z,19.57
2023-11-24T13:33:12.391Z,19.55
2023-11-24T13:35:43.787Z,19.44
2023-11-24T13:38:16.479Z,19.38
2023-11-24T13:40:48.841Z,19.36
2023-11-24T13:43:20.540Z,19.38
2023-11-24T13:45:52.806Z,19.40
2023-11-24T13:48:24.957Z,19.37
2023-11-24T13:50:58.405Z,19.24
2023-11-24T13:53:32.265Z,19.19
2023-11-24T13:56:03.328Z,19.18
2023-11-24T13:58:39.641Z,19.18
2023-11-24T14:01:11.062Z,19.15
2023-11-24T14:03:44.637Z,19.10
2023-11-24T14:06:16.766Z,18.99
2023-11-24T14:08:48.635Z,18.85
2023-11-24T14:11:20.170Z,18.74
2023-11-24T14:13:51.854Z,18.65
2023-11-24T14:16:25.007Z,18.58
2023-11-24T14:18:56.289Z,18.50
2023-11-24T14:21:27.594Z,18.39
2023-11-24T14:24:01.634Z,18.37
2023-11-24T14:26:34.564Z,18.30
2023-11-24T14:29:07.237Z,18.25
2023-11-24T14:31:38.396Z,18.26
2023-11-24T14:34:10.933Z,18.25
2023-11-24T14:36:43.650Z,18.18
2023-11-24T14:39:28.134Z,18.11
2023-11-24T14:41:59.811Z,18.01
2023-11-24T14:44:31.198Z,17.90
2023-11-24T14:47:02.882Z,17.88
2023-11-24T14:49:34.604Z,17.85
2023-11-24T14:52:09.009Z,17.80
2023-11-24T14:54:40.373Z,17.74
2023-11-24T14:57:14.145Z,17.72
2023-11-24T14:59:45.459Z,17.71
2023-11-24T15:02:18.227Z,17.70
2023-11-24T15:04:49.382Z,17.61
2023-11-24T15:07:21.118Z,17.55
2023-11-24T15:09:53.915Z,17.47
2023-11-24T15:12:28.355Z,17.43
2023-11-24T15:15:00.450Z,17.36
2023-11-24T15:17:32.199Z,17.39
2023-11-24T15:20:26.664Z,17.44
2023-11-24T15:22:59.651Z,17.53
2023-11-24T15:25:36.887Z,17.58
2023-11-24T15:28:14.039Z,17.64
2023-11-24T15:30:46.299Z,17.67
2023-11-24T15:33:19.638Z,17.68
2023-11-24T15:35:51.162Z,17.71
2023-11-24T15:38:24.293Z,17.73
2023-11-24T15:40:55.975Z,17.75
2023-11-24T15:43:27.229Z,17.76
2023-11-24T15:46:00.218Z,17.78
2023-11-24T15:48:34.220Z,17.78
2023-11-24T15:51:06.392Z,17.77
2023-11-24T15:53:37.200Z,17.77
2023-11-24T15:56:11.909Z,17.74
2023-11-24T15:58:44.715Z,17.72
2023-11-24T16:01:16.703Z,17.69
2023-11-24T16:03:47.794Z,17.66
2023-11-24T16:06:21.871Z,17.64
2023-11-24T16:08:56.510Z,17.63
2023-11-24T16:11:28.231Z,17.63
2023-11-24T16:13:59.882Z,17.61
2023-11-24T16:16:32.434Z,17.57
2023-11-24T16:19:03.445Z,17.53
2023-11-24T16:21:34.651Z,17.49
2023-11-24T16:24:06.366Z,17.46
2023-11-24T16:26:37.261Z,17.43
2023-11-24T16:29:08.695Z,17.40
2023-11-24T16:31:44.374Z,17.36
2023-11-24T16:34:16.448Z,17.32
2023-11-24T16:36:47.963Z,17.29
2023-11-24T16:39:23.930Z,17.25
2023-11-24T16:41:55.309Z,17.21
2023-11-24T16:44:26.152Z,17.17
2023-11-24T16:47:01.236Z,17.12
2023-11-24T16:49:32.456Z,17.08
2023-11-24T16:52:04.707Z,17.03
2023-11-24T16:54:36.390Z,16.98
2023-11-24T16:57:09.634Z,16.93
2023-11-24T16:59:40.636Z,16.89
2023-11-24T17:02:11.707Z,16.85
2023-11-24T17:04:43.242Z,16.81
2023-11-24T17:07:14.544Z,16.78
2023-11-24T17:09:47.372Z,16.73
2023-11-24T17:12:19.764Z,16.69
2023-11-24T17:14:51.268Z,16.67
2023-11-24T17:17:22.699Z,16.65
2023-11-24T17:19:54.197Z,16.64
2023-11-24T17:22:25.500Z,16.60
2023-11-24T17:24:57.151Z,16.58
2023-11-24T17:27:30.206Z,16.56
2023-11-24T17:30:01.945Z,16.54
2023-11-24T17:32:33.040Z,16.52
2023-11-24T17:35:07.235Z,16.50
2023-11-24T17:37:39.152Z,16.47
2023-11-24T17:40:15.852Z,16.44
2023-11-24T17:42:47.692Z,16.38
2023-11-24T17:45:19.628Z,16.36
2023-11-24T17:47:52.991Z,16.35
2023-11-24T17:50:24.806Z,16.34
2023-11-24T17:52:55.861Z,16.34
2023-11-24T17:55:27.569Z,16.33
2023-11-24T17:57:58.712Z,16.33
2023-11-24T18:00:33.371Z,16.33
2023-11-24T18:03:06.921Z,16.31
2023-11-24T18:05:38.625Z,16.29
2023-11-24T18:08:09.960Z,16.26
2023-11-24T18:10:41.273Z,16.24
2023-11-24T18:13:12.374Z,16.22
2023-11-24T18:15:43.791Z,16.19
2023-11-24T18:18:14.996Z,16.16
2023-11-24T18:20:46.924Z,16.14
2023-11-24T18:23:17.993Z,16.10
2023-11-24T18:25:51.402Z,16.08
2023-11-24T18:28:22.294Z,16.07
2023-11-24T18:30:54.471Z,16.06
2023-11-24T18:33:26.821Z,16.05
2023-11-24T18:35:58.091Z,16.04
2023-11-24T18:38:29.978Z,16.03
2023-11-24T18:41:01.208Z,16.02
2023-11-24T18:43:39.499Z,16.00
2023-11-24T18:46:12.081Z,15.97
2023-11-24T18:48:43.389Z,15.96
2023-11-24T18:51:15.717Z,15.95
2023-11-24T18:53:47.125Z,15.95
2023-11-24T18:56:22.980Z,15.95
2023-11-24T18:58:54.189Z,15.94
2023-11-24T19:01:25.316Z,15.94
2023-11-24T19:03:56.548Z,15.93
2023-11-24T19:06:28.950Z,15.92
2023-11-24T19:08:59.776Z,15.92
2023-11-24T19:11:31.171Z,15.92
2023-11-24T19:14:02.933Z,15.93
2023-11-24T19:16:34.343Z,15.95
2023-11-24T19:19:05.794Z,15.95
2023-11-24T19:21:36.900Z,15.96
2023-11-24T19:24:09.842Z,15.96
2023-11-24T19:26:40.913Z,15.96
2023-11-24T19:29:12.669Z,15.99
2023-11-24T19:31:44.042Z,15.99
2023-11-24T19:34:15.382Z,16.00
2023-11-24T19:36:46.393Z,16.02
2023-11-24T19:39:18.085Z,16.02
2023-11-24T19:41:48.952Z,16.03
2023-11-24T19:44:21.248Z,16.03
2023-11-24T19:46:52.344Z,16.03
2023-11-24T19:49:23.632Z,16.04
2023-11-24T19:51:54.713Z,16.05
2023-11-24T19:54:25.639Z,16.09
2023-11-24T19:56:56.856Z,16.13
2023-11-24T19:59:28.161Z,16.16
2023-11-24T20:01:59.974Z,16.15
2023-11-24T20:04:31.685Z,16.14
2023-11-24T20:07:03.022Z,16.14
2023-11-24T20:09:34.180Z,16.13
2023-11-24T20:12:05.455Z,16.11
2023-11-24T20:14:36.847Z,16.11
2023-11-24T20:17:09.812Z,16.11
2023-11-24T20:19:40.889Z,16.30
2023-11-24T20:22:11.815Z,16.57
2023-11-24T20:24:43.952Z,16.80
2023-11-24T20:27:15.088Z,16.99
2023-11-24T20:29:46.355Z,17.25
2023-11-24T20:32:17.916Z,17.62
2023-11-24T20:34:50.502Z,17.79
2023-11-24T20:37:21.577Z,17.66
2023-11-24T20:39:57.245Z,17.48
2023-11-24T20:42:28.427Z,17.32
2023-11-24T20:44:59.462Z,17.16
2023-11-24T20:47:31.049Z,16.96
2023-11-24T20:50:02.112Z,16.81
2023-11-24T20:52:33.225Z,16.70
2023-11-24T20:55:04.555Z,16.59
2023-11-24T20:57:35.973Z,16.49
2023-11-24T21:00:11.733Z,16.40
2023-11-24T21:02:43.463Z,16.29
2023-11-24T21:05:14.829Z,16.21
2023-11-24T21:07:46.111Z,16.14
2023-11-24T21:10:17.786Z,16.09
2023-11-24T21:12:49.387Z,16.02
2023-11-24T21:15:20.574Z,15.97
2023-11-24T21:17:51.857Z,15.91
2023-11-24T21:20:24.778Z,15.87
2023-11-24T21:22:55.784Z,15.82
2023-11-24T21:25:29.318Z,15.78
2023-11-24T21:28:01.330Z,15.72
2023-11-24T21:30:32.326Z,15.69
2023-11-24T21:33:03.505Z,15.65
2023-11-24T21:35:35.035Z,15.60
2023-11-24T21:38:06.151Z,15.57
2023-11-24T21:40:37.097Z,15.54
2023-11-24T21:43:08.147Z,15.50
2023-11-24T21:45:39.443Z,15.46
2023-11-24T21:48:11.126Z,15.43
2023-11-24T21:50:42.586Z,15.40
2023-11-24T21:53:15.025Z,15.38
2023-11-24T21:55:46.604Z,15.36
2023-11-24T21:58:19.054Z,15.33
2023-11-24T22:00:50.522Z,15.32
2023-11-24T22:03:22.312Z,15.31
2023-11-24T22:05:54.228Z,15.30
2023-11-24T22:08:25.347Z,15.31
2023-11-24T22:10:56.794Z,15.30
2023-11-24T22:13:27.981Z,15.29
2023-11-24T22:15:59.410Z,15.27
2023-11-24T22:18:32.016Z,15.26
2023-11-24T22:21:03.326Z,15.26
2023-11-24T22:23:34.408Z,15.26
2023-11-24T22:26:06.084Z,15.24
2023-11-24T22:28:37.056Z,15.24
2023-11-24T22:31:08.829Z,15.24
2023-11-24T22:33:41.033Z,15.24
2023-11-24T22:36:19.403Z,15.23
2023-11-24T22:38:51.597Z,15.21
2023-11-24T22:41:24.000Z,15.20
2023-11-24T22:43:56.787Z,15.19
2023-11-24T22:46:28.967Z,15.17
2023-11-24T22:49:00.267Z,15.16
2023-11-24T22:51:31.365Z,15.15
2023-11-24T22:54:02.356Z,15.13
2023-11-24T22:56:34.049Z,15.13
2023-11-24T22:59:05.643Z,15.14
2023-11-24T23:01:36.982Z,15.15
2023-11-24T23:04:09.018Z,15.16
2023-11-24T23:06:40.360Z,15.15
2023-11-24T23:09:11.508Z,15.14
2023-11-24T23:11:42.561Z,15.15
2023-11-24T23:14:14.389Z,15.16
2023-11-24T23:16:46.081Z,15.17
2023-11-24T23:19:17.090Z,15.17
2023-11-24T23:21:50.156Z,15.18
2023-11-24T23:24:21.056Z,15.18
2023-11-24T23:26:52.173Z,15.18
2023-11-24T23:29:23.283Z,15.19
2023-11-24T23:31:54.723Z,15.18
2023-11-24T23:34:26.696Z,15.18
2023-11-24T23:36:58.220Z,15.18
2023-11-24T23:39:29.773Z,15.19
2023-11-24T23:42:03.734Z,15.22
2023-11-24T23:44:36.968Z,15.26
2023-11-24T23:47:08.458Z,15.32
2023-11-24T23:49:40.448Z,15.39
2023-11-24T23:52:12.300Z,15.47
2023-11-24T23:54:43.832Z,15.60
2023-11-24T23:57:15.606Z,15.74
2023-11-24T23:59:47.070Z,15.80
